Iron Gate, Virginia
Current Conditions -  °F | °C
As of 8:35 PM on Friday 24 Oct 2014 (Local Time) from KHSP Reporting Station
Clear Clear  
Wind Chill: 42°   Ceiling: Unl
Heat Index: 47°   Visibility: 10mi
Dew Point: 30°   Wind: 12mph
Humidity: 51%   Direction: 300°WNW
Pressure: 30.01"   Gusts: NA
Location:  37.8°N, 79.79°W
Report Text: KHSP 250035Z AUTO 30010KT 10SM CLR 09/M01 A3001 RMK AO2 T00861011
Loading
Personal Weather Stations






























Interactive Weather Map
Tropical Storm Tracking
New forecast layout! Learn more

10-Day Weather Forecast

Advertisements
Track Severe Weather on mobile